NJE221 LFMD-LYTV
Flight info
| Callsign | NJE221 |
|---|---|
| Flight time | N/A |
| Altitude | 39000 |
| Route | SODRI A3 MIRSA DCT TIMOV DCT INTUD DCT ATRUP DCT KATTI DCT TAZ |
| Aircraft | C750/M-SBDE3FGHRWXY/S |
Departure
| Time | 2026-04-20 17:03 |
|---|---|
| Airport | Cannes Mandelieu Airport (LFMD) |
Arrival
| Time | N/A |
|---|---|
| Airport | Tivat Airport (LYTV) |
| Time | Latitude | Longitude | Altitude | Speed | Heading |
|---|---|---|---|---|---|
| 2026-04-20 16:55 | 43.55274 | 6.95241 | 14 ft | 0 kts | 80° |
| 2026-04-20 17:00 | 43.55274 | 6.95242 | 14 ft | 0 kts | 80° |
| 2026-04-20 17:01 | 43.55267 | 6.95262 | 14 ft | 3 kts | 145° |
| 2026-04-20 17:01 | 43.55227 | 6.95263 | 14 ft | 7 kts | 204° |
| 2026-04-20 17:01 | 43.55222 | 6.95188 | 14 ft | 8 kts | 322° |
| 2026-04-20 17:01 | 43.55295 | 6.95167 | 14 ft | 13 kts | 353° |
| 2026-04-20 17:02 | 43.55375 | 6.95143 | 14 ft | 9 kts | 324° |
| 2026-04-20 17:02 | 43.55391 | 6.95056 | 14 ft | 12 kts | 263° |
| 2026-04-20 17:02 | 43.55339 | 6.94991 | 14 ft | 6 kts | 175° |
| 2026-04-20 17:02 | 43.55133 | 6.95024 | 12 ft | 86 kts | 173° |
| 2026-04-20 17:03 | 43.54270 | 6.95177 | 260 ft | 139 kts | 172° |
| 2026-04-20 17:03 | 43.53301 | 6.95377 | 983 ft | 147 kts | 164° |
| 2026-04-20 17:03 | 43.52422 | 6.96207 | 1598 ft | 159 kts | 139° |
| 2026-04-20 17:03 | 43.51627 | 6.97375 | 2221 ft | 177 kts | 131° |
| 2026-04-20 17:04 | 43.50770 | 6.98777 | 2740 ft | 206 kts | 131° |
| 2026-04-20 17:04 | 43.49756 | 7.00307 | 3475 ft | 226 kts | 135° |
| 2026-04-20 17:04 | 43.49024 | 7.01383 | 3983 ft | 239 kts | 135° |
| 2026-04-20 17:04 | 43.47464 | 7.03734 | 5040 ft | 262 kts | 135° |
| 2026-04-20 17:05 | 43.46202 | 7.05651 | 5831 ft | 278 kts | 134° |
| 2026-04-20 17:05 | 43.44877 | 7.07657 | 6605 ft | 288 kts | 134° |
| 2026-04-20 17:05 | 43.43516 | 7.09712 | 7348 ft | 292 kts | 134° |
| 2026-04-20 17:05 | 43.42137 | 7.11791 | 8098 ft | 296 kts | 134° |
| 2026-04-20 17:06 | 43.41199 | 7.13204 | 8605 ft | 297 kts | 134° |
| 2026-04-20 17:06 | 43.39797 | 7.15315 | 9367 ft | 300 kts | 134° |
| 2026-04-20 17:06 | 43.38400 | 7.17415 | 10100 ft | 304 kts | 134° |
| 2026-04-20 17:06 | 43.36949 | 7.19594 | 10827 ft | 314 kts | 134° |
| 2026-04-20 17:07 | 43.35445 | 7.21851 | 11497 ft | 327 kts | 134° |
| 2026-04-20 17:07 | 43.33879 | 7.24201 | 12132 ft | 340 kts | 134° |
| 2026-04-20 17:07 | 43.32257 | 7.26635 | 12782 ft | 351 kts | 134° |
| 2026-04-20 17:07 | 43.30587 | 7.29138 | 13445 ft | 360 kts | 134° |
| 2026-04-20 17:08 | 43.28869 | 7.31710 | 14069 ft | 369 kts | 134° |
| 2026-04-20 17:08 | 43.27114 | 7.34336 | 14669 ft | 377 kts | 134° |
| 2026-04-20 17:08 | 43.25321 | 7.37016 | 15281 ft | 385 kts | 134° |
| 2026-04-20 17:08 | 43.23494 | 7.39743 | 15904 ft | 391 kts | 134° |
| 2026-04-20 17:09 | 43.21636 | 7.42514 | 16540 ft | 398 kts | 134° |
| 2026-04-20 17:09 | 43.19748 | 7.45327 | 17188 ft | 405 kts | 134° |
| 2026-04-20 17:09 | 43.17823 | 7.48193 | 17841 ft | 411 kts | 134° |
| 2026-04-20 17:09 | 43.15872 | 7.51095 | 18473 ft | 418 kts | 134° |
| 2026-04-20 17:10 | 43.13892 | 7.54038 | 19078 ft | 422 kts | 134° |
| 2026-04-20 17:10 | 43.11986 | 7.57130 | 19694 ft | 429 kts | 126° |
| 2026-04-20 17:10 | 43.10591 | 7.60760 | 20410 ft | 434 kts | 113° |
| 2026-04-20 17:10 | 43.09778 | 7.64756 | 21085 ft | 439 kts | 100° |
| 2026-04-20 17:11 | 43.09278 | 7.68898 | 21748 ft | 443 kts | 99° |
| 2026-04-20 17:11 | 43.08776 | 7.73075 | 22413 ft | 448 kts | 99° |
| 2026-04-20 17:11 | 43.08252 | 7.77307 | 23063 ft | 453 kts | 100° |
| 2026-04-20 17:11 | 43.07724 | 7.81570 | 23667 ft | 457 kts | 100° |
| 2026-04-20 17:12 | 43.07238 | 7.85891 | 24227 ft | 461 kts | 98° |
| 2026-04-20 17:12 | 43.06774 | 7.90238 | 24788 ft | 464 kts | 98° |
| 2026-04-20 17:12 | 43.06283 | 7.94558 | 25337 ft | 467 kts | 99° |
| 2026-04-20 17:12 | 43.05751 | 7.99020 | 25894 ft | 471 kts | 99° |
| 2026-04-20 17:13 | 43.05237 | 8.03457 | 26447 ft | 474 kts | 98° |
| 2026-04-20 17:13 | 43.04733 | 8.07922 | 26997 ft | 478 kts | 98° |
| 2026-04-20 17:13 | 43.04223 | 8.12367 | 27541 ft | 481 kts | 98° |
| 2026-04-20 17:13 | 43.03682 | 8.16958 | 28098 ft | 485 kts | 98° |
| 2026-04-20 17:14 | 43.03145 | 8.21525 | 28650 ft | 488 kts | 98° |
| 2026-04-20 17:14 | 43.02610 | 8.26128 | 29190 ft | 492 kts | 98° |
| 2026-04-20 17:14 | 43.02068 | 8.30763 | 29713 ft | 496 kts | 98° |
| 2026-04-20 17:14 | 43.01515 | 8.35434 | 30207 ft | 500 kts | 98° |
| 2026-04-20 17:15 | 43.00901 | 8.40066 | 30515 ft | 506 kts | 100° |
| 2026-04-20 17:15 | 43.00213 | 8.44860 | 30983 ft | 508 kts | 100° |
| 2026-04-20 17:15 | 42.99556 | 8.49526 | 31630 ft | 506 kts | 100° |
| 2026-04-20 17:15 | 42.98892 | 8.54243 | 32244 ft | 506 kts | 100° |
| 2026-04-20 17:16 | 42.98216 | 8.58958 | 32841 ft | 505 kts | 101° |
| 2026-04-20 17:16 | 42.97537 | 8.63662 | 33472 ft | 505 kts | 101° |
| 2026-04-20 17:16 | 42.96862 | 8.68360 | 34073 ft | 505 kts | 101° |
| 2026-04-20 17:16 | 42.96187 | 8.73062 | 34619 ft | 505 kts | 101° |
| 2026-04-20 17:17 | 42.95507 | 8.77761 | 35179 ft | 504 kts | 101° |
| 2026-04-20 17:17 | 42.94889 | 8.82461 | 35685 ft | 504 kts | 99° |
| 2026-04-20 17:17 | 42.94282 | 8.87169 | 36228 ft | 504 kts | 99° |
| 2026-04-20 17:17 | 42.93648 | 8.91870 | 36771 ft | 503 kts | 99° |
| 2026-04-20 17:18 | 42.93016 | 8.96570 | 37313 ft | 503 kts | 99° |
| 2026-04-20 17:18 | 42.92392 | 9.01260 | 37859 ft | 503 kts | 99° |
| 2026-04-20 17:18 | 42.91763 | 9.05953 | 38406 ft | 503 kts | 99° |
| 2026-04-20 17:18 | 42.91127 | 9.10647 | 38878 ft | 503 kts | 99° |
| 2026-04-20 17:19 | 42.90483 | 9.15388 | 38927 ft | 514 kts | 99° |
| 2026-04-20 17:19 | 42.89828 | 9.20226 | 38924 ft | 525 kts | 99° |
| 2026-04-20 17:19 | 42.89157 | 9.25168 | 38936 ft | 535 kts | 99° |
| 2026-04-20 17:20 | 42.87778 | 9.35311 | 38953 ft | 553 kts | 99° |
| 2026-04-20 17:20 | 42.86352 | 9.45723 | 38952 ft | 560 kts | 99° |
| 2026-04-20 17:21 | 42.84903 | 9.56227 | 38950 ft | 565 kts | 99° |
| 2026-04-20 17:21 | 42.83435 | 9.66756 | 38950 ft | 566 kts | 100° |
| 2026-04-20 17:22 | 42.81958 | 9.77280 | 38949 ft | 566 kts | 100° |
| 2026-04-20 17:22 | 42.80438 | 9.87804 | 38947 ft | 566 kts | 100° |
| 2026-04-20 17:23 | 42.78922 | 9.98306 | 38934 ft | 564 kts | 100° |
| 2026-04-20 17:23 | 42.77393 | 10.08787 | 38939 ft | 564 kts | 100° |
| 2026-04-20 17:24 | 42.75857 | 10.19256 | 38940 ft | 564 kts | 100° |
| 2026-04-20 17:24 | 42.74315 | 10.29702 | 38940 ft | 564 kts | 100° |
| 2026-04-20 17:25 | 42.72760 | 10.40159 | 38944 ft | 564 kts | 101° |
| 2026-04-20 17:25 | 42.71198 | 10.50602 | 38944 ft | 564 kts | 101° |
| 2026-04-20 17:26 | 42.69625 | 10.61047 | 38948 ft | 565 kts | 101° |
| 2026-04-20 17:26 | 42.68040 | 10.71502 | 38951 ft | 565 kts | 101° |
| 2026-04-20 17:27 | 42.66445 | 10.81952 | 38947 ft | 565 kts | 101° |
| 2026-04-20 17:27 | 42.64841 | 10.92396 | 38947 ft | 565 kts | 101° |
| 2026-04-20 17:28 | 42.63228 | 11.02832 | 38947 ft | 565 kts | 101° |
| 2026-04-20 17:28 | 42.61604 | 11.13273 | 38948 ft | 565 kts | 101° |
| 2026-04-20 17:29 | 42.59970 | 11.23708 | 38950 ft | 565 kts | 101° |
| 2026-04-20 17:29 | 42.58327 | 11.34139 | 38962 ft | 567 kts | 101° |
| 2026-04-20 17:30 | 42.56681 | 11.44519 | 38960 ft | 567 kts | 101° |
| 2026-04-20 17:30 | 42.55016 | 11.54961 | 38963 ft | 567 kts | 101° |
| 2026-04-20 17:31 | 42.53338 | 11.65407 | 38965 ft | 567 kts | 101° |
| 2026-04-20 17:31 | 42.51653 | 11.75850 | 38984 ft | 567 kts | 101° |
| 2026-04-20 17:32 | 42.49955 | 11.86292 | 38991 ft | 567 kts | 101° |
| 2026-04-20 17:32 | 42.49070 | 11.96865 | 38985 ft | 565 kts | 89° |
| 2026-04-20 17:33 | 42.48939 | 12.07497 | 39001 ft | 565 kts | 90° |
| 2026-04-20 17:33 | 42.48495 | 12.18121 | 38999 ft | 565 kts | 90° |
| 2026-04-20 17:34 | 42.48260 | 12.28748 | 38966 ft | 565 kts | 90° |
| 2026-04-20 17:34 | 42.47866 | 12.39371 | 38972 ft | 565 kts | 91° |
| 2026-04-20 17:35 | 42.47559 | 12.50016 | 38980 ft | 565 kts | 90° |
| 2026-04-20 17:35 | 42.47176 | 12.60653 | 38990 ft | 565 kts | 91° |
| 2026-04-20 17:36 | 42.46064 | 12.71218 | 38994 ft | 568 kts | 99° |
| 2026-04-20 17:36 | 42.44705 | 12.81746 | 38998 ft | 569 kts | 97° |
| 2026-04-20 17:37 | 42.43461 | 12.92321 | 38995 ft | 568 kts | 98° |
| 2026-04-20 17:37 | 42.42100 | 13.02843 | 38995 ft | 567 kts | 98° |
| 2026-04-20 17:38 | 42.40821 | 13.13362 | 38985 ft | 569 kts | 98° |
| 2026-04-20 17:38 | 42.39464 | 13.23866 | 38995 ft | 571 kts | 98° |
| 2026-04-20 17:39 | 42.38137 | 13.34448 | 38988 ft | 570 kts | 98° |
| 2026-04-20 17:39 | 42.36771 | 13.44992 | 38982 ft | 570 kts | 98° |
| 2026-04-20 17:40 | 42.35419 | 13.55562 | 38975 ft | 569 kts | 97° |
| 2026-04-20 17:40 | 42.35207 | 13.66171 | 38954 ft | 563 kts | 82° |
| 2026-04-20 17:41 | 42.36239 | 13.76640 | 38956 ft | 562 kts | 79° |
| 2026-04-20 17:41 | 42.36916 | 13.87198 | 38950 ft | 564 kts | 83° |
| 2026-04-20 17:42 | 42.37720 | 13.97727 | 38948 ft | 563 kts | 79° |
| 2026-04-20 17:42 | 42.38474 | 14.08263 | 38916 ft | 564 kts | 82° |
| 2026-04-20 17:43 | 42.39204 | 14.18814 | 38917 ft | 563 kts | 81° |
| 2026-04-20 17:43 | 42.39967 | 14.29363 | 38919 ft | 563 kts | 82° |
| 2026-04-20 17:44 | 42.40668 | 14.39921 | 38926 ft | 563 kts | 81° |
| 2026-04-20 17:44 | 42.41412 | 14.50492 | 38934 ft | 565 kts | 82° |
| 2026-04-20 17:45 | 42.42102 | 14.61079 | 38940 ft | 565 kts | 82° |